Terminal Aerodrome Forecast
Issued by NWS

Home | Current Version | Previous Version | Text Only | Print | Product List | Glossary On
Versions: 1 2 3 4 5 6 7 8 9 10 11 12 13 14 15 16
000
FTUS43 KIND 161120
TAFHUF
TAF
KHUF 161120Z 1612/1712 20008KT P6SM FEW100
     FM161500 21011G23KT P6SM SKC
     FM162300 21009KT P6SM SKC=

USA.gov is the U.S. government's official web portal to all federal, state and local government web resources and services.